Ernest, Pennsylvania
Current Conditions -  °F | °C
As of 1:15 PM on Sunday 25 Jan 2015 (Local Time) from KIDI Reporting Station
Haze Haze  
Wind Chill: -2°   Ceiling: 300
Heat Index:   Visibility: 0.5mi
Dew Point:   Wind: 6mph
Humidity: 100%   Direction: 230°SW
Pressure: 29.81"   Gusts: NA
Location:  40.68°N, 79.16°W
Report Text: KIDI 251815Z AUTO 23005KT 1/2SM BR OVC003 01/01 A2981 RMK A01
Loading
Personal Weather Stations






























Interactive Weather Map New forecast layout! Learn more

10-Day Weather Forecast

Advertisements
Track Severe Weather on mobile